Time;durP1;ratioP1;P1;durP2;ratioP2;P2;SDS_P1;SDS_P2;PMS_P1;PMS_P2;Temp;Humidity;BMP_temperature;BMP_pressure;BME280_temperature;BME280_humidity;BME280_pressure;Samples;Min_cycle;Max_cycle;Signal;HPM_P1;HPM_P2
2021/03/17 00:02:18;;;;;;;13.60;11.18;;;;;;;;;;5032791;28;20377;-85
2021/03/17 00:05:00;;;;;;;15.10;11.55;;;;;;;;;;5012842;28;20875;-90
2021/03/17 00:07:27;;;;;;;16.40;12.38;;;;;;;;;;5012591;28;20421;-85
2021/03/17 00:09:53;;;;;;;17.00;12.52;;;;;;;;;;5012929;28;20413;-88
2021/03/17 00:12:21;;;;;;;15.38;11.40;;;;;;;;;;5013482;28;20393;-87
2021/03/17 00:14:47;;;;;;;14.52;12.82;;;;;;;;;;5012152;28;20443;-83
2021/03/17 00:17:13;;;;;;;16.37;12.50;;;;;;;;;;5029898;28;20373;-87
2021/03/17 00:19:39;;;;;;;16.02;12.73;;;;;;;;;;5012731;28;20460;-85
2021/03/17 00:22:06;;;;;;;18.45;12.48;;;;;;;;;;5012814;28;20385;-87
2021/03/17 00:24:32;;;;;;;17.08;13.05;;;;;;;;;;5012634;28;20384;-83
2021/03/17 00:26:58;;;;;;;16.25;13.15;;;;;;;;;;5012903;28;20748;-81
2021/03/17 00:29:24;;;;;;;19.15;14.60;;;;;;;;;;5030335;28;20409;-84
2021/03/17 00:31:50;;;;;;;19.90;15.48;;;;;;;;;;5012706;28;20389;-85
2021/03/17 00:34:16;;;;;;;18.95;15.75;;;;;;;;;;5012860;28;20477;-87
2021/03/17 00:36:42;;;;;;;19.52;15.18;;;;;;;;;;5012499;28;20382;-84
2021/03/17 00:39:08;;;;;;;20.73;15.70;;;;;;;;;;5012724;28;20373;-86
2021/03/17 00:41:34;;;;;;;21.52;16.50;;;;;;;;;;5012414;28;20385;-87
2021/03/17 00:44:00;;;;;;;19.38;15.30;;;;;;;;;;5012841;28;20386;-85
2021/03/17 00:46:26;;;;;;;21.08;16.65;;;;;;;;;;5029631;28;20385;-84
2021/03/17 00:48:52;;;;;;;19.33;14.70;;;;;;;;;;5014902;28;20827;-85
2021/03/17 00:51:18;;;;;;;19.85;14.82;;;;;;;;;;5015467;28;20381;-86
2021/03/17 00:53:44;;;;;;;19.05;14.75;;;;;;;;;;5032968;28;20377;-84
2021/03/17 00:56:10;;;;;;;19.70;15.32;;;;;;;;;;5015509;28;20381;-84
2021/03/17 00:58:36;;;;;;;16.25;13.82;;;;;;;;;;5033529;28;20373;-84
2021/03/17 01:01:02;;;;;;;21.30;15.68;;;;;;;;;;5033463;28;20818;-88
2021/03/17 01:03:28;;;;;;;19.05;15.68;;;;;;;;;;5034110;28;20365;-86
2021/03/17 01:05:53;;;;;;;19.70;16.27;;;;;;;;;;5034155;28;20389;-85
2021/03/17 01:08:20;;;;;;;16.98;14.00;;;;;;;;;;5016031;28;20393;-85
2021/03/17 01:10:47;;;;;;;19.55;15.35;;;;;;;;;;5033656;28;20382;-85
2021/03/17 01:13:13;;;;;;;17.25;14.02;;;;;;;;;;5033693;28;20370;-88
2021/03/17 01:15:39;;;;;;;16.80;13.35;;;;;;;;;;5016232;28;20784;-85
2021/03/17 01:18:05;;;;;;;16.98;13.45;;;;;;;;;;5015835;28;20480;-84
2021/03/17 01:20:32;;;;;;;16.77;11.95;;;;;;;;;;5033609;28;20413;-86
2021/03/17 01:22:58;;;;;;;16.40;12.00;;;;;;;;;;5033512;28;20473;-85
2021/03/17 01:25:35;;;;;;;13.18;10.63;;;;;;;;;;5015705;28;20432;-85
2021/03/17 01:28:03;;;;;;;11.68;9.68;;;;;;;;;;5033303;28;20374;-86
2021/03/17 01:30:30;;;;;;;12.23;9.00;;;;;;;;;;5033783;28;20445;-85
2021/03/17 01:32:56;;;;;;;13.60;9.38;;;;;;;;;;5033327;28;20374;-87
2021/03/17 01:35:22;;;;;;;10.98;8.65;;;;;;;;;;5015814;28;20464;-86
2021/03/17 01:37:48;;;;;;;11.27;9.43;;;;;;;;;;5015316;28;20453;-87
2021/03/17 01:40:14;;;;;;;12.32;9.57;;;;;;;;;;5015603;28;20873;-84
2021/03/17 01:42:41;;;;;;;11.17;9.20;;;;;;;;;;5033135;28;20589;-87
2021/03/17 01:45:09;;;;;;;11.32;9.07;;;;;;;;;;5033086;28;20381;-86
2021/03/17 01:47:35;;;;;;;10.88;8.90;;;;;;;;;;5015343;28;20524;-86
2021/03/17 01:50:01;;;;;;;11.30;8.60;;;;;;;;;;5032940;28;20503;-85
2021/03/17 01:52:27;;;;;;;12.07;8.63;;;;;;;;;;5015392;28;20385;-86
2021/03/17 01:54:53;;;;;;;11.85;9.15;;;;;;;;;;5032813;28;20377;-87
2021/03/17 01:57:19;;;;;;;11.27;8.38;;;;;;;;;;5015175;28;20878;-85
2021/03/17 01:59:45;;;;;;;11.80;9.05;;;;;;;;;;5014229;28;20436;-84
2021/03/17 02:02:12;;;;;;;12.93;9.07;;;;;;;;;;5015377;28;20442;-84
2021/03/17 02:04:38;;;;;;;15.07;8.73;;;;;;;;;;5015258;28;20414;-83
2021/03/17 02:07:04;;;;;;;16.23;9.02;;;;;;;;;;5032806;28;20409;-85
2021/03/17 02:09:30;;;;;;;12.05;8.27;;;;;;;;;;5014825;28;20459;-83
2021/03/17 02:12:22;;;;;;;12.13;8.68;;;;;;;;;;5032639;28;20811;-85
2021/03/17 02:15:08;;;;;;;14.07;8.95;;;;;;;;;;5002139;28;20377;-86
2021/03/17 02:17:35;;;;;;;13.37;9.20;;;;;;;;;;5032267;28;20388;-82
2021/03/17 02:20:01;;;;;;;11.75;9.13;;;;;;;;;;5014154;28;20382;-87
2021/03/17 02:22:27;;;;;;;12.63;8.63;;;;;;;;;;5014770;28;20378;-85
2021/03/17 02:24:58;;;;;;;15.00;9.27;;;;;;;;;;5032346;28;20374;-87
2021/03/17 02:27:43;;;;;;;14.18;8.80;;;;;;;;;;5032434;28;20403;-83
2021/03/17 02:30:35;;;;;;;12.80;8.95;;;;;;;;;;5032248;28;20971;-85
2021/03/17 02:33:19;;;;;;;13.85;8.93;;;;;;;;;;5001774;28;20378;-87
2021/03/17 02:35:48;;;;;;;14.15;9.35;;;;;;;;;;5014205;28;20911;-84
2021/03/17 02:38:15;;;;;;;15.10;8.80;;;;;;;;;;5032089;28;20389;-84
2021/03/17 02:40:42;;;;;;;12.90;8.68;;;;;;;;;;5014072;28;20477;-84
2021/03/17 02:43:11;;;;;;;12.07;9.10;;;;;;;;;;5014180;28;20894;-83
2021/03/17 02:45:39;;;;;;;13.57;9.15;;;;;;;;;;5014169;28;20520;-87
2021/03/17 02:48:08;;;;;;;14.07;8.68;;;;;;;;;;5031910;28;20384;-83
2021/03/17 02:50:35;;;;;;;15.17;9.50;;;;;;;;;;5014247;28;20780;-83
2021/03/17 02:53:02;;;;;;;14.02;9.38;;;;;;;;;;5014262;28;20824;-85
2021/03/17 02:55:33;;;;;;;14.25;9.35;;;;;;;;;;5031702;28;20425;-83
2021/03/17 02:57:59;;;;;;;13.23;9.40;;;;;;;;;;5031517;28;20377;-82
2021/03/17 03:00:27;;;;;;;14.02;9.20;;;;;;;;;;5013981;28;20727;-87
2021/03/17 03:02:53;;;;;;;16.15;10.90;;;;;;;;;;5013812;28;20456;-84
2021/03/17 03:05:20;;;;;;;20.67;11.00;;;;;;;;;;5013812;28;20381;-84
2021/03/17 03:07:48;;;;;;;15.07;10.02;;;;;;;;;;5031383;28;20701;-84
2021/03/17 03:10:15;;;;;;;15.88;11.32;;;;;;;;;;5012760;28;20417;-84
2021/03/17 03:12:42;;;;;;;18.50;10.63;;;;;;;;;;5013314;28;20791;-84
2021/03/17 03:15:09;;;;;;;14.68;10.52;;;;;;;;;;5031355;28;20408;-84
2021/03/17 03:17:36;;;;;;;20.75;11.73;;;;;;;;;;5013398;28;20524;-83
2021/03/17 03:20:05;;;;;;;20.23;12.38;;;;;;;;;;5013600;28;20830;-84
2021/03/17 03:22:31;;;;;;;19.33;11.30;;;;;;;;;;5013727;28;20370;-86
2021/03/17 03:24:57;;;;;;;19.60;12.32;;;;;;;;;;5013225;28;20389;-86
2021/03/17 03:27:24;;;;;;;21.55;13.55;;;;;;;;;;5031321;28;20419;-82
2021/03/17 03:29:51;;;;;;;19.85;10.23;;;;;;;;;;5013514;28;20950;-83
2021/03/17 03:32:17;;;;;;;15.75;9.60;;;;;;;;;;5013278;28;20381;-83
2021/03/17 03:34:43;;;;;;;15.65;10.93;;;;;;;;;;5013392;28;20393;-84
2021/03/17 03:37:09;;;;;;;20.20;11.02;;;;;;;;;;5013423;28;20400;-83
2021/03/17 03:39:35;;;;;;;17.40;9.97;;;;;;;;;;5013372;28;20460;-85
2021/03/17 03:42:01;;;;;;;18.42;9.05;;;;;;;;;;5013058;28;20373;-86
2021/03/17 03:44:28;;;;;;;14.68;7.88;;;;;;;;;;5013088;28;20382;-84
2021/03/17 03:46:54;;;;;;;13.82;7.30;;;;;;;;;;5030957;28;20465;-86
2021/03/17 03:49:20;;;;;;;18.95;8.23;;;;;;;;;;5030862;28;20397;-83
2021/03/17 03:51:54;;;;;;;17.77;7.95;;;;;;;;;;5030628;28;20837;-85
2021/03/17 03:54:38;;;;;;;17.42;8.65;;;;;;;;;;5030756;28;20743;-82
2021/03/17 03:57:15;;;;;;;12.63;7.93;;;;;;;;;;5013096;28;20380;-86
2021/03/17 03:59:42;;;;;;;16.08;7.10;;;;;;;;;;5013285;28;20387;-83
2021/03/17 04:02:09;;;;;;;14.18;6.15;;;;;;;;;;5013130;28;20378;-86
2021/03/17 04:04:37;;;;;;;18.77;7.30;;;;;;;;;;5012992;28;20773;-86
2021/03/17 04:07:04;;;;;;;16.08;7.32;;;;;;;;;;5030552;28;20448;-84
2021/03/17 04:09:32;;;;;;;16.90;6.82;;;;;;;;;;5030237;28;20413;-84
2021/03/17 04:11:59;;;;;;;15.27;6.30;;;;;;;;;;5030592;28;20389;-86
2021/03/17 04:14:26;;;;;;;18.87;6.87;;;;;;;;;;5012879;28;20415;-86
2021/03/17 04:16:52;;;;;;;13.85;6.07;;;;;;;;;;5012661;28;20405;-83
2021/03/17 04:19:21;;;;;;;12.47;5.47;;;;;;;;;;5030292;28;20373;-86
2021/03/17 04:21:47;;;;;;;16.17;6.10;;;;;;;;;;5029875;28;20369;-88
2021/03/17 04:24:14;;;;;;;13.88;5.78;;;;;;;;;;5012639;28;20366;-84
2021/03/17 04:26:41;;;;;;;15.52;5.70;;;;;;;;;;5012551;28;20451;-83
2021/03/17 04:29:07;;;;;;;10.95;5.82;;;;;;;;;;5012640;28;20406;-84
2021/03/17 04:31:34;;;;;;;11.63;5.97;;;;;;;;;;5030340;28;20476;-83
2021/03/17 04:34:00;;;;;;;13.73;6.15;;;;;;;;;;5012603;28;20382;-85
2021/03/17 04:36:27;;;;;;;13.75;6.20;;;;;;;;;;5030330;28;20416;-85
2021/03/17 04:38:53;;;;;;;12.70;6.28;;;;;;;;;;5030193;28;20380;-85
2021/03/17 04:41:20;;;;;;;14.37;6.17;;;;;;;;;;5012677;28;20382;-85
2021/03/17 04:43:47;;;;;;;12.07;5.75;;;;;;;;;;5030205;28;20361;-83
2021/03/17 04:46:14;;;;;;;13.38;5.88;;;;;;;;;;5030240;28;20425;-85
2021/03/17 04:48:42;;;;;;;13.90;5.38;;;;;;;;;;5012405;28;20895;-85
2021/03/17 04:51:08;;;;;;;12.93;5.15;;;;;;;;;;5030225;28;20373;-83
2021/03/17 04:53:35;;;;;;;12.20;5.13;;;;;;;;;;5012826;28;20886;-84
2021/03/17 04:56:05;;;;;;;13.10;5.22;;;;;;;;;;5012480;28;20397;-86
2021/03/17 04:58:32;;;;;;;11.38;4.80;;;;;;;;;;5012464;28;20896;-86
2021/03/17 05:01:00;;;;;;;18.67;5.30;;;;;;;;;;5012730;28;21098;-84
2021/03/17 05:03:26;;;;;;;17.25;5.47;;;;;;;;;;5030399;28;20866;-85
2021/03/17 05:05:53;;;;;;;16.40;5.45;;;;;;;;;;5012473;28;20890;-86
2021/03/17 05:08:19;;;;;;;14.15;5.60;;;;;;;;;;5030091;28;20400;-83
2021/03/17 05:10:46;;;;;;;15.25;5.55;;;;;;;;;;5029982;28;20392;-86
2021/03/17 05:13:13;;;;;;;13.70;5.40;;;;;;;;;;5012781;28;20465;-85
2021/03/17 05:15:40;;;;;;;13.40;5.30;;;;;;;;;;5029871;28;20362;-84
2021/03/17 05:18:07;;;;;;;9.57;4.93;;;;;;;;;;5029823;28;20476;-82
2021/03/17 05:20:34;;;;;;;14.43;5.47;;;;;;;;;;5012267;28;20465;-84
2021/03/17 05:23:00;;;;;;;14.23;5.43;;;;;;;;;;5030150;28;20468;-83
2021/03/17 05:25:27;;;;;;;14.57;4.90;;;;;;;;;;5012367;28;20370;-86
2021/03/17 05:27:55;;;;;;;10.18;4.50;;;;;;;;;;5029904;28;20370;-83
2021/03/17 05:30:22;;;;;;;13.80;5.25;;;;;;;;;;5030037;28;20409;-86
2021/03/17 05:32:49;;;;;;;12.75;4.68;;;;;;;;;;5012365;28;20381;-85
2021/03/17 05:35:15;;;;;;;13.57;5.95;;;;;;;;;;5032471;28;20705;-84
2021/03/17 05:37:42;;;;;;;15.70;5.70;;;;;;;;;;5033422;28;20737;-86
2021/03/17 05:40:09;;;;;;;14.73;6.33;;;;;;;;;;5015390;28;20891;-85
2021/03/17 05:42:35;;;;;;;19.30;6.38;;;;;;;;;;5033499;28;20369;-83
2021/03/17 05:45:01;;;;;;;15.85;6.47;;;;;;;;;;5015657;28;20426;-86
2021/03/17 05:47:29;;;;;;;14.60;6.25;;;;;;;;;;5015403;28;20824;-83
2021/03/17 05:49:55;;;;;;;17.77;7.28;;;;;;;;;;5032989;28;20412;-87
2021/03/17 05:52:21;;;;;;;17.50;7.47;;;;;;;;;;5015472;28;20386;-84
2021/03/17 05:54:47;;;;;;;24.90;10.30;;;;;;;;;;5015025;28;20439;-85
2021/03/17 05:57:13;;;;;;;27.80;11.73;;;;;;;;;;5015560;28;20409;-83
2021/03/17 05:59:40;;;;;;;27.83;12.47;;;;;;;;;;5033113;28;20459;-83
2021/03/17 06:02:09;;;;;;;29.80;13.90;;;;;;;;;;5015327;28;20409;-82
2021/03/17 06:04:38;;;;;;;33.85;14.05;;;;;;;;;;5032916;28;20842;-88
2021/03/17 06:07:09;;;;;;;33.92;14.40;;;;;;;;;;5033310;28;20385;-84
2021/03/17 06:09:36;;;;;;;32.10;14.73;;;;;;;;;;5014963;28;20424;-85
2021/03/17 06:12:02;;;;;;;31.42;16.33;;;;;;;;;;5032920;28;20377;-83
2021/03/17 06:14:29;;;;;;;35.77;16.93;;;;;;;;;;5032741;28;20378;-86
2021/03/17 06:17:03;;;;;;;38.88;18.27;;;;;;;;;;5032572;28;20385;-85
2021/03/17 06:19:32;;;;;;;38.17;17.73;;;;;;;;;;5032793;28;20429;-85
2021/03/17 06:21:59;;;;;;;41.38;18.38;;;;;;;;;;5014786;28;20521;-85
2021/03/17 06:24:26;;;;;;;39.28;18.45;;;;;;;;;;5015038;28;20388;-86
2021/03/17 06:26:52;;;;;;;34.10;18.05;;;;;;;;;;5014721;28;20396;-86
2021/03/17 06:29:18;;;;;;;35.47;17.15;;;;;;;;;;5014647;28;20912;-84
2021/03/17 06:31:47;;;;;;;34.63;17.52;;;;;;;;;;5032337;28;20407;-89
2021/03/17 06:34:13;;;;;;;29.63;17.17;;;;;;;;;;5014592;28;20393;-85
2021/03/17 06:36:52;;;;;;;33.17;16.77;;;;;;;;;;5032237;28;20416;-89
2021/03/17 06:39:19;;;;;;;34.83;16.75;;;;;;;;;;5014610;28;20747;-86
2021/03/17 06:41:45;;;;;;;33.80;17.60;;;;;;;;;;5032066;28;20385;-85
2021/03/17 06:44:11;;;;;;;31.10;17.23;;;;;;;;;;5032017;28;20377;-84
2021/03/17 06:46:37;;;;;;;35.45;18.17;;;;;;;;;;5013771;28;20374;-85
2021/03/17 06:49:06;;;;;;;31.40;17.17;;;;;;;;;;5013973;28;20404;-87
2021/03/17 06:51:33;;;;;;;27.73;17.00;;;;;;;;;;5014772;28;20409;-85
2021/03/17 06:54:00;;;;;;;29.05;16.42;;;;;;;;;;5014011;28;20381;-85
2021/03/17 06:56:28;;;;;;;28.92;16.73;;;;;;;;;;5013795;28;20369;-84
2021/03/17 06:58:58;;;;;;;30.67;16.73;;;;;;;;;;5031859;28;20373;-86
2021/03/17 07:01:27;;;;;;;34.53;16.63;;;;;;;;;;5014028;28;20370;-84
2021/03/17 07:03:54;;;;;;;30.50;17.45;;;;;;;;;;5032042;28;20377;-84
2021/03/17 07:06:20;;;;;;;33.05;18.65;;;;;;;;;;5014374;28;20380;-86
2021/03/17 07:08:46;;;;;;;33.80;18.90;;;;;;;;;;5014229;28;20950;-86
2021/03/17 07:11:12;;;;;;;32.83;19.08;;;;;;;;;;5031640;28;20386;-85
2021/03/17 07:13:38;;;;;;;32.95;18.98;;;;;;;;;;5014176;28;20381;-88
2021/03/17 07:16:04;;;;;;;32.80;18.83;;;;;;;;;;5014157;28;20405;-88
2021/03/17 07:18:31;;;;;;;32.47;18.25;;;;;;;;;;5031592;28;20783;-84
2021/03/17 07:20:58;;;;;;;34.33;20.00;;;;;;;;;;5031666;28;20432;-87
2021/03/17 07:23:28;;;;;;;34.05;20.10;;;;;;;;;;5031528;28;20510;-87
2021/03/17 07:26:12;;;;;;;32.30;19.25;;;;;;;;;;5031404;28;20373;-87
2021/03/17 07:28:47;;;;;;;30.95;19.50;;;;;;;;;;5013349;28;20442;-86
2021/03/17 07:31:14;;;;;;;30.55;20.35;;;;;;;;;;5013622;28;20382;-86
2021/03/17 07:33:40;;;;;;;31.52;20.27;;;;;;;;;;5031269;28;20472;-84
2021/03/17 07:36:06;;;;;;;33.70;20.77;;;;;;;;;;5031371;28;20476;-85
2021/03/17 07:38:33;;;;;;;29.90;20.20;;;;;;;;;;5013514;28;20389;-86
2021/03/17 07:40:59;;;;;;;30.13;19.58;;;;;;;;;;5013666;28;20378;-84
2021/03/17 07:43:26;;;;;;;30.88;20.90;;;;;;;;;;5013732;28;20432;-84
2021/03/17 07:45:52;;;;;;;32.60;22.10;;;;;;;;;;5012821;28;20475;-81
2021/03/17 07:48:19;;;;;;;32.53;21.80;;;;;;;;;;5030219;28;20813;-79
2021/03/17 07:50:45;;;;;;;28.20;19.85;;;;;;;;;;5030296;28;20374;-80
2021/03/17 07:53:21;;;;;;;30.25;20.95;;;;;;;;;;5012686;28;20953;-81
2021/03/17 07:55:49;;;;;;;29.93;21.03;;;;;;;;;;5028978;28;20803;-82
2021/03/17 07:58:15;;;;;;;30.42;20.40;;;;;;;;;;5005246;28;20418;-83
2021/03/17 08:00:44;;;;;;;29.20;20.65;;;;;;;;;;5012229;28;20851;-83
2021/03/17 08:03:14;;;;;;;33.53;21.13;;;;;;;;;;5022853;28;20409;-83
2021/03/17 08:05:40;;;;;;;36.03;22.77;;;;;;;;;;5021659;28;20386;-83
2021/03/17 08:08:07;;;;;;;33.53;21.88;;;;;;;;;;5039668;28;20448;-83
2021/03/17 08:10:36;;;;;;;34.38;22.00;;;;;;;;;;5040095;28;20393;-83
2021/03/17 08:13:02;;;;;;;32.92;21.85;;;;;;;;;;5036390;28;20385;-83
2021/03/17 08:15:29;;;;;;;32.03;21.60;;;;;;;;;;5039825;28;20432;-83
2021/03/17 08:17:55;;;;;;;36.67;22.48;;;;;;;;;;5019312;28;20379;-82
2021/03/17 08:20:21;;;;;;;30.13;20.27;;;;;;;;;;5029128;28;20404;-83
2021/03/17 08:22:48;;;;;;;29.98;21.23;;;;;;;;;;5027628;28;20378;-83
2021/03/17 08:25:34;;;;;;;32.70;20.45;;;;;;;;;;5029314;28;20381;-83
2021/03/17 08:28:35;;;;;;;33.35;21.08;;;;;;;;;;5029182;28;20740;-83
2021/03/17 08:31:01;;;;;;;36.00;22.60;;;;;;;;;;4929294;29;20437;-82
2021/03/17 08:33:41;;;;;;;30.77;20.52;;;;;;;;;;5009734;28;20370;-83
2021/03/17 08:36:07;;;;;;;25.98;19.23;;;;;;;;;;5029392;28;20740;-83
2021/03/17 08:38:46;;;;;;;30.40;20.45;;;;;;;;;;5012286;28;20370;-83
2021/03/17 08:41:12;;;;;;;30.33;20.30;;;;;;;;;;5027303;28;20389;-84
2021/03/17 08:43:38;;;;;;;30.88;20.90;;;;;;;;;;5027016;28;20424;-83
2021/03/17 08:46:08;;;;;;;28.73;20.67;;;;;;;;;;4997013;28;20385;-89
2021/03/17 08:48:54;;;;;;;29.58;18.92;;;;;;;;;;5017011;28;20432;-89
2021/03/17 08:51:39;;;;;;;27.77;18.23;;;;;;;;;;5017628;28;20444;-90
2021/03/17 08:54:25;;;;;;;25.17;18.58;;;;;;;;;;5009250;28;20376;-89
2021/03/17 08:56:51;;;;;;;28.92;18.30;;;;;;;;;;5016552;28;20383;-85
2021/03/17 08:59:18;;;;;;;25.67;17.47;;;;;;;;;;5018822;28;20384;-90
2021/03/17 09:01:46;;;;;;;25.45;16.25;;;;;;;;;;5033582;28;20381;-88
2021/03/17 09:04:32;;;;;;;21.20;16.27;;;;;;;;;;5015839;28;20416;-89
2021/03/17 09:07:07;;;;;;;21.63;15.90;;;;;;;;;;5031504;28;20457;-85
2021/03/17 09:09:48;;;;;;;22.33;16.10;;;;;;;;;;5037956;28;20429;-83
2021/03/17 09:12:15;;;;;;;21.80;16.30;;;;;;;;;;5017434;28;20442;-84
2021/03/17 09:14:41;;;;;;;21.10;15.88;;;;;;;;;;5038230;28;20388;-83
2021/03/17 09:17:14;;;;;;;19.23;14.88;;;;;;;;;;5039068;28;20529;-83
2021/03/17 09:19:59;;;;;;;22.67;15.30;;;;;;;;;;5014960;28;20919;-86
2021/03/17 09:22:44;;;;;;;20.67;14.93;;;;;;;;;;5039375;28;20405;-83
2021/03/17 09:25:16;;;;;;;19.73;13.90;;;;;;;;;;5014820;28;20383;-83
2021/03/17 09:27:48;;;;;;;17.63;13.88;;;;;;;;;;5019795;28;20909;-84
2021/03/17 09:30:15;;;;;;;21.45;15.05;;;;;;;;;;5024483;28;20414;-84
2021/03/17 09:32:41;;;;;;;21.27;14.73;;;;;;;;;;5038307;28;20397;-83
2021/03/17 09:35:08;;;;;;;20.73;15.07;;;;;;;;;;5018633;28;20486;-86
2021/03/17 09:37:34;;;;;;;20.40;15.02;;;;;;;;;;5014949;28;20384;-83
2021/03/17 09:40:00;;;;;;;19.58;15.00;;;;;;;;;;5020530;28;20384;-83
2021/03/17 09:42:27;;;;;;;23.05;15.68;;;;;;;;;;5016097;28;20743;-84
2021/03/17 09:44:57;;;;;;;19.70;15.07;;;;;;;;;;5019184;28;20893;-83
2021/03/17 09:47:27;;;;;;;19.08;14.35;;;;;;;;;;5013250;28;20389;-83
2021/03/17 09:49:54;;;;;;;18.98;13.85;;;;;;;;;;5011842;28;20412;-82
2021/03/17 09:52:20;;;;;;;18.05;13.40;;;;;;;;;;5018999;28;20472;-83
2021/03/17 09:54:46;;;;;;;18.00;14.18;;;;;;;;;;5036585;28;20382;-83
2021/03/17 09:57:12;;;;;;;18.20;14.38;;;;;;;;;;5015842;28;20393;-83
2021/03/17 09:59:39;;;;;;;16.85;13.25;;;;;;;;;;5020168;28;20389;-85
2021/03/17 10:02:18;;;;;;;16.00;13.25;;;;;;;;;;5016445;28;20384;-86
2021/03/17 10:04:48;;;;;;;15.60;12.95;;;;;;;;;;5037217;28;20834;-85
2021/03/17 10:07:16;;;;;;;15.93;13.00;;;;;;;;;;5019888;28;20563;-88
2021/03/17 10:09:43;;;;;;;15.38;11.90;;;;;;;;;;5037843;28;20423;-87
2021/03/17 10:12:10;;;;;;;12.00;10.70;;;;;;;;;;5039110;28;20384;-89
2021/03/17 10:14:38;;;;;;;12.55;10.20;;;;;;;;;;5038468;28;20394;-86
2021/03/17 10:17:05;;;;;;;13.07;10.57;;;;;;;;;;5020409;28;20887;-88
2021/03/17 10:19:32;;;;;;;12.43;10.52;;;;;;;;;;5016943;28;20388;-89
2021/03/17 10:21:58;;;;;;;14.07;11.73;;;;;;;;;;5037923;28;20386;-86
2021/03/17 10:24:31;;;;;;;14.52;12.15;;;;;;;;;;5022036;28;20775;-83
2021/03/17 10:26:57;;;;;;;13.80;11.32;;;;;;;;;;5023738;28;20473;-84
2021/03/17 10:29:23;;;;;;;14.40;12.00;;;;;;;;;;5046041;28;20418;-85
2021/03/17 10:31:56;;;;;;;14.43;11.82;;;;;;;;;;5019388;28;21072;-86
2021/03/17 10:34:24;;;;;;;18.52;13.55;;;;;;;;;;5021176;28;20393;-87
2021/03/17 10:36:54;;;;;;;15.10;13.50;;;;;;;;;;5047606;28;20388;-83
2021/03/17 10:39:31;;;;;;;17.67;12.75;;;;;;;;;;5024595;28;20397;-86
2021/03/17 10:41:57;;;;;;;16.65;13.25;;;;;;;;;;5038840;28;20468;-88
2021/03/17 10:44:24;;;;;;;15.40;12.43;;;;;;;;;;5028936;28;20486;-85
2021/03/17 10:47:06;;;;;;;15.50;12.40;;;;;;;;;;5010769;28;20478;-87
2021/03/17 10:49:33;;;;;;;16.52;13.65;;;;;;;;;;5012327;28;20934;-90
2021/03/17 10:51:59;;;;;;;15.57;12.77;;;;;;;;;;5017287;28;20397;-87
2021/03/17 10:54:39;;;;;;;17.67;13.73;;;;;;;;;;5018364;28;20444;-88
2021/03/17 10:57:05;;;;;;;14.43;12.93;;;;;;;;;;5035196;28;20411;-86
2021/03/17 10:59:35;;;;;;;16.52;12.35;;;;;;;;;;5011962;28;21080;-87
2021/03/17 11:02:19;;;;;;;14.82;12.20;;;;;;;;;;5029344;28;20532;-84
2021/03/17 11:05:04;;;;;;;14.35;11.73;;;;;;;;;;5011478;28;20476;-81
2021/03/17 11:08:06;;;;;;;12.18;10.80;;;;;;;;;;5013713;28;20883;-87
2021/03/17 11:10:35;;;;;;;12.10;10.83;;;;;;;;;;4987109;28;20439;-84
2021/03/17 11:13:10;;;;;;;11.65;10.45;;;;;;;;;;5011936;28;20385;-85
2021/03/17 11:15:41;;;;;;;12.05;10.55;;;;;;;;;;5011930;28;20748;-92
2021/03/17 11:18:08;;;;;;;10.40;9.30;;;;;;;;;;5012463;28;20392;-84
2021/03/17 11:20:40;;;;;;;10.52;9.13;;;;;;;;;;5029938;28;20394;-83
2021/03/17 11:23:16;;;;;;;10.95;9.38;;;;;;;;;;5010480;28;20477;-85
2021/03/17 11:25:43;;;;;;;9.23;8.32;;;;;;;;;;5017380;28;20406;-85
2021/03/17 11:28:13;;;;;;;9.43;7.93;;;;;;;;;;5018877;28;20734;-86
2021/03/17 11:31:05;;;;;;;9.35;8.30;;;;;;;;;;5033431;28;20383;-84
2021/03/17 11:33:31;;;;;;;9.50;8.38;;;;;;;;;;5035128;28;20397;-84
2021/03/17 11:35:59;;;;;;;8.75;7.85;;;;;;;;;;5010130;28;20392;-83
2021/03/17 11:38:26;;;;;;;9.83;8.33;;;;;;;;;;5032350;28;20362;-83
2021/03/17 11:40:53;;;;;;;9.23;8.20;;;;;;;;;;5019700;28;20384;-83
2021/03/17 11:43:20;;;;;;;9.48;8.55;;;;;;;;;;5016172;28;20848;-82
2021/03/17 11:45:46;;;;;;;9.93;8.93;;;;;;;;;;5034533;28;20736;-83
2021/03/17 11:48:12;;;;;;;9.52;8.43;;;;;;;;;;5033882;28;20381;-82
2021/03/17 11:50:40;;;;;;;10.02;8.88;;;;;;;;;;5036378;28;20387;-82
2021/03/17 11:53:07;;;;;;;10.00;8.75;;;;;;;;;;5031962;28;20901;-83
2021/03/17 11:55:33;;;;;;;10.30;9.15;;;;;;;;;;5030432;28;20405;-83
2021/03/17 11:57:59;;;;;;;9.75;8.60;;;;;;;;;;5003608;28;20387;-89
2021/03/17 12:00:25;;;;;;;9.55;8.65;;;;;;;;;;5017107;28;20382;-85
2021/03/17 12:02:52;;;;;;;10.02;8.93;;;;;;;;;;5005393;28;20390;-88
2021/03/17 12:05:18;;;;;;;9.07;8.18;;;;;;;;;;5019910;28;20544;-90
2021/03/17 12:07:45;;;;;;;9.75;8.70;;;;;;;;;;5026177;28;20390;-84
2021/03/17 12:10:14;;;;;;;8.85;7.93;;;;;;;;;;5026210;28;20416;-85
2021/03/17 12:12:40;;;;;;;9.05;8.15;;;;;;;;;;5031348;28;20434;-87
2021/03/17 12:15:08;;;;;;;10.05;9.02;;;;;;;;;;5016413;28;20409;-88
2021/03/17 12:17:34;;;;;;;7.57;6.85;;;;;;;;;;5018432;28;20366;-86
2021/03/17 12:20:00;;;;;;;6.00;5.40;;;;;;;;;;5007040;28;20403;-87
2021/03/17 12:22:27;;;;;;;6.43;5.53;;;;;;;;;;5016533;28;20381;-88
2021/03/17 12:24:53;;;;;;;7.22;6.50;;;;;;;;;;5016758;28;20424;-87
2021/03/17 12:27:19;;;;;;;9.95;8.95;;;;;;;;;;5036005;28;20883;-88
2021/03/17 12:29:45;;;;;;;10.90;9.15;;;;;;;;;;5015262;28;20505;-85
2021/03/17 12:32:11;;;;;;;12.23;10.50;;;;;;;;;;5034571;28;20433;-87
2021/03/17 12:34:37;;;;;;;12.75;9.85;;;;;;;;;;5036342;28;20887;-84
2021/03/17 12:37:03;;;;;;;11.55;10.35;;;;;;;;;;5016460;28;20469;-85
2021/03/17 12:39:29;;;;;;;9.20;7.60;;;;;;;;;;5035953;28;20460;-85
2021/03/17 12:41:55;;;;;;;8.02;7.15;;;;;;;;;;5016663;28;20412;-89
2021/03/17 12:44:22;;;;;;;9.02;8.10;;;;;;;;;;5021146;28;20441;-86
2021/03/17 12:46:48;;;;;;;11.18;9.50;;;;;;;;;;5021338;28;20473;-84
2021/03/17 12:49:14;;;;;;;11.02;9.27;;;;;;;;;;5034071;28;20403;-85
2021/03/17 12:51:40;;;;;;;11.13;9.35;;;;;;;;;;5021711;28;20791;-88
2021/03/17 12:54:06;;;;;;;9.13;8.13;;;;;;;;;;5037522;28;20399;-89
2021/03/17 12:56:32;;;;;;;9.20;8.30;;;;;;;;;;5012786;28;20418;-86
2021/03/17 12:59:01;;;;;;;8.80;7.90;;;;;;;;;;5017245;28;20383;-87
2021/03/17 13:01:28;;;;;;;7.70;6.97;;;;;;;;;;5033855;28;20433;-89
2021/03/17 13:03:54;;;;;;;7.88;6.60;;;;;;;;;;5018740;28;20417;-85
2021/03/17 13:06:21;;;;;;;7.32;6.32;;;;;;;;;;5019425;28;20382;-86
2021/03/17 13:08:48;;;;;;;7.32;6.60;;;;;;;;;;5019318;28;20429;-84
2021/03/17 13:11:14;;;;;;;7.10;6.40;;;;;;;;;;5021075;28;20410;-85
2021/03/17 13:13:40;;;;;;;7.68;6.20;;;;;;;;;;5037941;28;20727;-86
2021/03/17 13:16:08;;;;;;;6.70;5.80;;;;;;;;;;5016877;28;20381;-86
2021/03/17 13:18:34;;;;;;;6.18;5.57;;;;;;;;;;5034784;28;20394;-87
2021/03/17 13:21:00;;;;;;;6.00;5.40;;;;;;;;;;5036782;28;20740;-85
2021/03/17 13:23:26;;;;;;;6.43;5.77;;;;;;;;;;5038657;28;20369;-88
2021/03/17 13:25:52;;;;;;;2.77;2.50;;;;;;;;;;5020939;28;20386;-83
2021/03/17 13:28:18;;;;;;;1.50;1.10;;;;;;;;;;5020417;28;20382;-85
2021/03/17 13:30:47;;;;;;;1.50;1.10;;;;;;;;;;5038817;28;20431;-85
2021/03/17 13:33:13;;;;;;;1.88;1.48;;;;;;;;;;5037892;28;20376;-88
2021/03/17 13:35:39;;;;;;;1.42;1.25;;;;;;;;;;5018232;28;20499;-84
2021/03/17 13:38:08;;;;;;;1.55;1.30;;;;;;;;;;5038683;28;20456;-82
2021/03/17 13:40:35;;;;;;;1.88;1.40;;;;;;;;;;5037731;28;20368;-83
2021/03/17 13:43:01;;;;;;;1.70;1.55;;;;;;;;;;5017297;28;20919;-84
2021/03/17 13:45:27;;;;;;;2.05;1.65;;;;;;;;;;5018745;28;20381;-83
2021/03/17 13:47:53;;;;;;;2.65;1.70;;;;;;;;;;5038247;28;20405;-83
2021/03/17 13:50:19;;;;;;;1.77;1.50;;;;;;;;;;5036501;28;20414;-87
2021/03/17 13:52:45;;;;;;;1.65;1.40;;;;;;;;;;5038341;28;20391;-87
2021/03/17 13:55:13;;;;;;;1.98;1.52;;;;;;;;;;5017941;28;20421;-83
2021/03/17 13:57:39;;;;;;;2.13;1.77;;;;;;;;;;5038108;28;20385;-84
2021/03/17 14:00:06;;;;;;;2.20;1.73;;;;;;;;;;5037175;28;20392;-83
2021/03/17 14:02:32;;;;;;;2.13;1.92;;;;;;;;;;5020060;28;20380;-87
2021/03/17 14:04:58;;;;;;;2.40;2.10;;;;;;;;;;5020970;28;20824;-85
2021/03/17 14:07:27;;;;;;;2.20;1.83;;;;;;;;;;5037309;28;20393;-88
2021/03/17 14:09:53;;;;;;;2.03;1.83;;;;;;;;;;5017409;28;20404;-89
2021/03/17 14:12:19;;;;;;;2.45;2.00;;;;;;;;;;5037198;28;20452;-84
2021/03/17 14:14:46;;;;;;;3.15;1.90;;;;;;;;;;5016626;28;21238;-87
2021/03/17 14:17:16;;;;;;;2.28;2.08;;;;;;;;;;5017398;28;21146;-83
2021/03/17 14:19:42;;;;;;;2.72;2.20;;;;;;;;;;5018349;28;20406;-87
2021/03/17 14:22:08;;;;;;;3.38;2.90;;;;;;;;;;5038134;28;20417;-87
2021/03/17 14:24:34;;;;;;;3.10;2.80;;;;;;;;;;5032879;28;20402;-88
2021/03/17 14:27:00;;;;;;;2.70;2.20;;;;;;;;;;5018929;28;20864;-85
2021/03/17 14:29:28;;;;;;;3.20;2.50;;;;;;;;;;5033250;28;20524;-88
2021/03/17 14:31:54;;;;;;;3.42;2.40;;;;;;;;;;5020565;28;20395;-86
2021/03/17 14:34:20;;;;;;;3.42;3.13;;;;;;;;;;5037744;28;20373;-84